sensor_id;sensor_type;location;lat;lon;timestamp;pressure;altitude;pressure_sealevel;temperature;humidity
26487;BME280;14425;56.136;40.360;2023-08-07T00:00:11;99743.66;;;22.92;86.53
26487;BME280;14425;56.136;40.360;2023-08-07T00:02:37;99743.66;;;22.92;86.53
26487;BME280;14425;56.136;40.360;2023-08-07T00:05:04;99743.66;;;22.92;86.53
26487;BME280;14425;56.136;40.360;2023-08-07T00:07:30;99743.66;;;22.92;86.53
26487;BME280;14425;56.136;40.360;2023-08-07T00:09:56;99743.66;;;22.92;86.53
26487;BME280;14425;56.136;40.360;2023-08-07T00:12:21;99743.66;;;22.92;86.53
26487;BME280;14425;56.136;40.360;2023-08-07T00:14:48;99743.66;;;22.92;86.53
26487;BME280;14425;56.136;40.360;2023-08-07T00:17:15;99743.66;;;22.92;86.53
26487;BME280;14425;56.136;40.360;2023-08-07T00:19:41;99743.66;;;22.92;86.53
26487;BME280;14425;56.136;40.360;2023-08-07T00:22:07;99743.66;;;22.92;86.53
26487;BME280;14425;56.136;40.360;2023-08-07T00:24:34;99743.66;;;22.92;86.53
26487;BME280;14425;56.136;40.360;2023-08-07T00:27:00;99743.66;;;22.92;86.53
26487;BME280;14425;56.136;40.360;2023-08-07T00:29:26;99743.66;;;22.92;86.53
26487;BME280;14425;56.136;40.360;2023-08-07T00:31:51;99743.66;;;22.92;86.53
26487;BME280;14425;56.136;40.360;2023-08-07T00:34:17;99743.66;;;22.92;86.53
26487;BME280;14425;56.136;40.360;2023-08-07T00:36:43;99743.66;;;22.92;86.53
26487;BME280;14425;56.136;40.360;2023-08-07T00:39:08;99743.66;;;22.92;86.53
26487;BME280;14425;56.136;40.360;2023-08-07T00:41:34;99743.66;;;22.92;86.53
26487;BME280;14425;56.136;40.360;2023-08-07T00:44:00;99743.66;;;22.92;86.53
26487;BME280;14425;56.136;40.360;2023-08-07T00:46:27;99743.66;;;22.92;86.53
26487;BME280;14425;56.136;40.360;2023-08-07T00:48:53;99743.66;;;22.92;86.53
26487;BME280;14425;56.136;40.360;2023-08-07T00:51:20;99743.66;;;22.92;86.53
26487;BME280;14425;56.136;40.360;2023-08-07T00:53:46;99743.66;;;22.92;86.53
26487;BME280;14425;56.136;40.360;2023-08-07T00:56:13;99743.66;;;22.92;86.53
26487;BME280;14425;56.136;40.360;2023-08-07T00:58:39;99743.66;;;22.92;86.53
26487;BME280;14425;56.136;40.360;2023-08-07T01:01:06;99743.66;;;22.92;86.53
26487;BME280;14425;56.136;40.360;2023-08-07T01:03:31;99743.66;;;22.92;86.53
26487;BME280;14425;56.136;40.360;2023-08-07T01:05:57;99743.66;;;-145.77;86.53
26487;BME280;14425;56.136;40.360;2023-08-07T01:08:24;99743.66;;;22.92;86.53
26487;BME280;14425;56.136;40.360;2023-08-07T01:13:55;99727.66;;;22.40;86.37
26487;BME280;14425;56.136;40.360;2023-08-07T01:19:22;99727.66;;;22.40;86.37
26487;BME280;14425;56.136;40.360;2023-08-07T01:22:06;99727.66;;;22.40;86.37
26487;BME280;14425;56.136;40.360;2023-08-07T01:24:33;99727.66;;;22.40;86.37
26487;BME280;14425;56.136;40.360;2023-08-07T01:27:06;99727.66;;;22.40;86.37
26487;BME280;14425;56.136;40.360;2023-08-07T01:29:48;99727.66;;;22.40;86.37
26487;BME280;14425;56.136;40.360;2023-08-07T01:32:24;99727.66;;;22.40;86.37
26487;BME280;14425;56.136;40.360;2023-08-07T01:34:52;99727.66;;;22.40;86.37
26487;BME280;14425;56.136;40.360;2023-08-07T01:37:21;99727.66;;;22.40;86.37
26487;BME280;14425;56.136;40.360;2023-08-07T01:39:48;99727.66;;;22.40;86.37
26487;BME280;14425;56.136;40.360;2023-08-07T01:42:15;99727.66;;;22.40;86.37
26487;BME280;14425;56.136;40.360;2023-08-07T01:44:41;99727.66;;;22.40;86.37
26487;BME280;14425;56.136;40.360;2023-08-07T01:47:06;99727.66;;;22.40;86.37
26487;BME280;14425;56.136;40.360;2023-08-07T01:49:32;99727.66;;;22.40;86.37
26487;BME280;14425;56.136;40.360;2023-08-07T01:51:58;99743.75;;;22.40;86.37
26487;BME280;14425;56.136;40.360;2023-08-07T01:54:23;99727.66;;;22.40;86.37
26487;BME280;14425;56.136;40.360;2023-08-07T01:56:49;99727.66;;;22.40;86.37
26487;BME280;14425;56.136;40.360;2023-08-07T01:59:14;99727.66;;;22.40;86.37
26487;BME280;14425;56.136;40.360;2023-08-07T02:01:40;99727.66;;;22.40;86.37
26487;BME280;14425;56.136;40.360;2023-08-07T02:04:05;99727.66;;;22.40;86.37
26487;BME280;14425;56.136;40.360;2023-08-07T02:06:31;99727.66;;;22.40;86.37
26487;BME280;14425;56.136;40.360;2023-08-07T02:08:56;57093.69;;;-145.77;100.00
26487;BME280;14425;56.136;40.360;2023-08-07T02:11:22;57093.69;;;-145.77;100.00
26487;BME280;14425;56.136;40.360;2023-08-07T02:13:48;57093.69;;;-145.77;100.00
26487;BME280;14425;56.136;40.360;2023-08-07T02:16:13;57093.69;;;-145.77;100.00
26487;BME280;14425;56.136;40.360;2023-08-07T02:18:39;57093.69;;;-145.77;100.00
26487;BME280;14425;56.136;40.360;2023-08-07T02:21:24;57093.69;;;-145.77;100.00
26487;BME280;14425;56.136;40.360;2023-08-07T02:23:50;57093.69;;;-145.77;100.00
26487;BME280;14425;56.136;40.360;2023-08-07T02:26:15;57093.69;;;-145.77;100.00
26487;BME280;14425;56.136;40.360;2023-08-07T02:28:41;57093.69;;;-145.77;100.00
26487;BME280;14425;56.136;40.360;2023-08-07T02:31:06;57093.69;;;-145.77;100.00
26487;BME280;14425;56.136;40.360;2023-08-07T02:33:32;57093.69;;;-145.77;100.00
26487;BME280;14425;56.136;40.360;2023-08-07T02:35:58;57093.69;;;-145.77;100.00
26487;BME280;14425;56.136;40.360;2023-08-07T02:38:24;57093.69;;;-145.77;100.00
26487;BME280;14425;56.136;40.360;2023-08-07T02:40:50;57093.69;;;-145.77;100.00
26487;BME280;14425;56.136;40.360;2023-08-07T02:43:15;57093.69;;;-145.77;100.00
26487;BME280;14425;56.136;40.360;2023-08-07T02:45:41;57093.69;;;-145.77;100.00
26487;BME280;14425;56.136;40.360;2023-08-07T02:48:06;57093.69;;;-145.77;100.00
26487;BME280;14425;56.136;40.360;2023-08-07T02:50:32;57093.69;;;-145.77;100.00
26487;BME280;14425;56.136;40.360;2023-08-07T02:53:01;57093.69;;;-145.77;100.00
26487;BME280;14425;56.136;40.360;2023-08-07T02:55:27;57093.69;;;-145.77;100.00
26487;BME280;14425;56.136;40.360;2023-08-07T02:57:53;57093.69;;;-145.77;100.00
26487;BME280;14425;56.136;40.360;2023-08-07T03:00:18;57093.69;;;-145.77;100.00
26487;BME280;14425;56.136;40.360;2023-08-07T03:02:44;57093.69;;;-145.77;100.00
26487;BME280;14425;56.136;40.360;2023-08-07T03:05:10;57093.69;;;-145.77;100.00
26487;BME280;14425;56.136;40.360;2023-08-07T03:07:35;57093.69;;;-145.77;100.00
26487;BME280;14425;56.136;40.360;2023-08-07T03:10:01;57093.69;;;-145.77;100.00
26487;BME280;14425;56.136;40.360;2023-08-07T03:12:26;57093.69;;;-145.77;100.00
26487;BME280;14425;56.136;40.360;2023-08-07T03:14:52;57093.69;;;-145.77;100.00
26487;BME280;14425;56.136;40.360;2023-08-07T03:17:17;57093.69;;;-145.77;100.00
26487;BME280;14425;56.136;40.360;2023-08-07T03:19:43;57093.69;;;-145.77;100.00
26487;BME280;14425;56.136;40.360;2023-08-07T03:22:09;57093.69;;;-145.77;100.00
26487;BME280;14425;56.136;40.360;2023-08-07T03:24:35;57093.69;;;-145.77;100.00
26487;BME280;14425;56.136;40.360;2023-08-07T03:27:00;57093.69;;;-145.77;100.00
26487;BME280;14425;56.136;40.360;2023-08-07T03:29:26;57093.69;;;-145.77;100.00
26487;BME280;14425;56.136;40.360;2023-08-07T03:31:52;57093.69;;;-145.77;100.00
26487;BME280;14425;56.136;40.360;2023-08-07T03:34:17;57093.69;;;-145.77;100.00
26487;BME280;14425;56.136;40.360;2023-08-07T03:36:45;57093.69;;;-145.77;100.00
26487;BME280;14425;56.136;40.360;2023-08-07T03:39:10;57093.69;;;-145.77;100.00
26487;BME280;14425;56.136;40.360;2023-08-07T03:41:37;57093.69;;;-145.77;100.00
26487;BME280;14425;56.136;40.360;2023-08-07T03:44:03;57093.69;;;-145.77;100.00
26487;BME280;14425;56.136;40.360;2023-08-07T03:46:29;57093.69;;;-145.77;100.00
26487;BME280;14425;56.136;40.360;2023-08-07T03:48:55;57093.69;;;-145.77;100.00
26487;BME280;14425;56.136;40.360;2023-08-07T03:51:20;57093.69;;;-145.77;100.00
26487;BME280;14425;56.136;40.360;2023-08-07T03:53:46;57093.69;;;-145.77;100.00
26487;BME280;14425;56.136;40.360;2023-08-07T03:56:11;57093.69;;;-145.77;100.00
26487;BME280;14425;56.136;40.360;2023-08-07T03:58:37;57093.69;;;-145.77;100.00
26487;BME280;14425;56.136;40.360;2023-08-07T04:01:03;57093.69;;;-145.77;100.00
26487;BME280;14425;56.136;40.360;2023-08-07T04:03:28;57093.69;;;-145.77;100.00
26487;BME280;14425;56.136;40.360;2023-08-07T04:05:54;57093.69;;;-145.77;100.00
26487;BME280;14425;56.136;40.360;2023-08-07T04:08:21;57093.69;;;-145.77;100.00
26487;BME280;14425;56.136;40.360;2023-08-07T04:11:03;57093.69;;;-145.77;100.00
26487;BME280;14425;56.136;40.360;2023-08-07T04:13:30;57093.69;;;-145.77;100.00
26487;BME280;14425;56.136;40.360;2023-08-07T04:15:56;57093.69;;;-145.77;100.00
26487;BME280;14425;56.136;40.360;2023-08-07T04:18:22;57093.69;;;-145.77;100.00
26487;BME280;14425;56.136;40.360;2023-08-07T04:20:51;57093.69;;;-145.77;100.00
26487;BME280;14425;56.136;40.360;2023-08-07T04:23:17;57093.69;;;-145.77;100.00
26487;BME280;14425;56.136;40.360;2023-08-07T04:25:43;57093.69;;;-145.77;100.00
26487;BME280;14425;56.136;40.360;2023-08-07T04:28:09;57093.69;;;-145.77;100.00
26487;BME280;14425;56.136;40.360;2023-08-07T04:30:34;57093.69;;;-145.77;100.00
26487;BME280;14425;56.136;40.360;2023-08-07T04:33:00;57093.69;;;-145.77;100.00
26487;BME280;14425;56.136;40.360;2023-08-07T04:35:25;57093.69;;;-145.77;100.00
26487;BME280;14425;56.136;40.360;2023-08-07T04:37:51;57093.69;;;-145.77;100.00
26487;BME280;14425;56.136;40.360;2023-08-07T04:40:17;57093.69;;;-145.77;100.00
26487;BME280;14425;56.136;40.360;2023-08-07T04:42:42;57093.69;;;-145.77;100.00
26487;BME280;14425;56.136;40.360;2023-08-07T04:45:08;57093.69;;;-145.77;100.00
26487;BME280;14425;56.136;40.360;2023-08-07T04:47:34;57093.69;;;-145.77;100.00
26487;BME280;14425;56.136;40.360;2023-08-07T04:50:01;57093.69;;;-145.77;100.00
26487;BME280;14425;56.136;40.360;2023-08-07T04:52:29;57093.69;;;-145.77;100.00
26487;BME280;14425;56.136;40.360;2023-08-07T04:54:54;57093.69;;;-145.77;100.00
26487;BME280;14425;56.136;40.360;2023-08-07T04:57:20;57093.69;;;-145.77;100.00
26487;BME280;14425;56.136;40.360;2023-08-07T04:59:45;57093.69;;;-145.77;100.00
26487;BME280;14425;56.136;40.360;2023-08-07T05:02:11;57093.69;;;-145.77;100.00
26487;BME280;14425;56.136;40.360;2023-08-07T05:04:36;57093.69;;;-145.77;100.00
26487;BME280;14425;56.136;40.360;2023-08-07T05:07:02;57093.69;;;-145.77;100.00
26487;BME280;14425;56.136;40.360;2023-08-07T05:09:28;57093.69;;;-145.77;100.00
26487;BME280;14425;56.136;40.360;2023-08-07T05:11:54;57093.69;;;-145.77;100.00
26487;BME280;14425;56.136;40.360;2023-08-07T05:14:19;57093.69;;;-145.77;100.00
26487;BME280;14425;56.136;40.360;2023-08-07T05:16:46;57093.69;;;-145.77;100.00
26487;BME280;14425;56.136;40.360;2023-08-07T05:19:11;57093.69;;;-145.77;100.00
26487;BME280;14425;56.136;40.360;2023-08-07T05:21:37;57093.69;;;-145.77;100.00
26487;BME280;14425;56.136;40.360;2023-08-07T05:24:03;57093.69;;;-145.77;100.00
26487;BME280;14425;56.136;40.360;2023-08-07T05:26:29;57093.69;;;-145.77;100.00
26487;BME280;14425;56.136;40.360;2023-08-07T05:28:55;57093.69;;;-145.77;100.00
26487;BME280;14425;56.136;40.360;2023-08-07T05:31:24;57093.69;;;-145.77;100.00
26487;BME280;14425;56.136;40.360;2023-08-07T05:33:49;57093.69;;;-145.77;100.00
26487;BME280;14425;56.136;40.360;2023-08-07T05:36:15;57093.69;;;-145.77;100.00
26487;BME280;14425;56.136;40.360;2023-08-07T05:38:41;57093.69;;;-145.77;100.00
26487;BME280;14425;56.136;40.360;2023-08-07T05:41:08;57093.69;;;-145.77;100.00
26487;BME280;14425;56.136;40.360;2023-08-07T05:43:33;57093.69;;;-145.77;100.00
26487;BME280;14425;56.136;40.360;2023-08-07T05:45:59;57093.69;;;-145.77;100.00
26487;BME280;14425;56.136;40.360;2023-08-07T05:48:24;57093.69;;;-145.77;100.00
26487;BME280;14425;56.136;40.360;2023-08-07T05:50:51;57093.69;;;-145.77;100.00
26487;BME280;14425;56.136;40.360;2023-08-07T05:53:17;57093.69;;;-145.77;100.00
26487;BME280;14425;56.136;40.360;2023-08-07T05:55:43;57093.69;;;-145.77;100.00
26487;BME280;14425;56.136;40.360;2023-08-07T05:58:08;57093.69;;;-145.77;100.00
26487;BME280;14425;56.136;40.360;2023-08-07T06:00:34;57093.69;;;-145.77;100.00
26487;BME280;14425;56.136;40.360;2023-08-07T06:03:00;57093.69;;;-145.77;100.00
26487;BME280;14425;56.136;40.360;2023-08-07T06:05:25;57093.69;;;-145.77;100.00
26487;BME280;14425;56.136;40.360;2023-08-07T06:07:51;57093.69;;;-145.77;100.00
26487;BME280;14425;56.136;40.360;2023-08-07T06:10:17;57093.69;;;-145.77;100.00
26487;BME280;14425;56.136;40.360;2023-08-07T06:12:42;57093.69;;;-145.77;100.00
26487;BME280;14425;56.136;40.360;2023-08-07T06:15:08;57093.69;;;-145.77;100.00
26487;BME280;14425;56.136;40.360;2023-08-07T06:17:34;57093.69;;;-145.77;100.00
26487;BME280;14425;56.136;40.360;2023-08-07T06:20:00;57093.69;;;-145.77;100.00
26487;BME280;14425;56.136;40.360;2023-08-07T06:22:25;57093.69;;;-145.77;100.00
26487;BME280;14425;56.136;40.360;2023-08-07T06:24:51;57093.69;;;-145.77;100.00
26487;BME280;14425;56.136;40.360;2023-08-07T06:27:17;57093.69;;;-145.77;100.00
26487;BME280;14425;56.136;40.360;2023-08-07T06:29:42;57093.69;;;-145.77;100.00
26487;BME280;14425;56.136;40.360;2023-08-07T06:32:08;57093.69;;;-145.77;100.00
26487;BME280;14425;56.136;40.360;2023-08-07T06:34:35;57093.69;;;-145.77;100.00
26487;BME280;14425;56.136;40.360;2023-08-07T06:37:04;57093.69;;;-145.77;100.00
26487;BME280;14425;56.136;40.360;2023-08-07T06:39:30;57093.69;;;-145.77;100.00
26487;BME280;14425;56.136;40.360;2023-08-07T06:41:56;57093.69;;;-145.77;100.00
26487;BME280;14425;56.136;40.360;2023-08-07T06:44:24;57093.69;;;-145.77;100.00
26487;BME280;14425;56.136;40.360;2023-08-07T06:46:50;57093.69;;;-145.77;100.00
26487;BME280;14425;56.136;40.360;2023-08-07T06:49:15;57093.69;;;-145.77;100.00
26487;BME280;14425;56.136;40.360;2023-08-07T06:51:41;57093.69;;;-145.77;100.00
26487;BME280;14425;56.136;40.360;2023-08-07T06:54:06;57093.69;;;-145.77;100.00
26487;BME280;14425;56.136;40.360;2023-08-07T06:56:32;57093.69;;;-145.77;100.00
26487;BME280;14425;56.136;40.360;2023-08-07T06:58:58;57093.69;;;-145.77;100.00
26487;BME280;14425;56.136;40.360;2023-08-07T07:01:23;57093.69;;;-145.77;100.00
26487;BME280;14425;56.136;40.360;2023-08-07T07:03:49;57093.69;;;-145.77;100.00
26487;BME280;14425;56.136;40.360;2023-08-07T07:06:18;57093.69;;;-145.77;100.00
26487;BME280;14425;56.136;40.360;2023-08-07T07:08:45;57093.69;;;-145.77;100.00
26487;BME280;14425;56.136;40.360;2023-08-07T07:11:11;57093.69;;;-145.77;100.00
26487;BME280;14425;56.136;40.360;2023-08-07T07:13:37;57093.69;;;-145.77;100.00
26487;BME280;14425;56.136;40.360;2023-08-07T07:16:03;57093.69;;;-145.77;100.00
26487;BME280;14425;56.136;40.360;2023-08-07T07:18:28;57093.69;;;-145.77;100.00
26487;BME280;14425;56.136;40.360;2023-08-07T07:20:58;57093.69;;;-145.77;100.00
26487;BME280;14425;56.136;40.360;2023-08-07T07:23:26;57093.69;;;-145.77;100.00
26487;BME280;14425;56.136;40.360;2023-08-07T07:25:52;57093.69;;;-145.77;100.00
26487;BME280;14425;56.136;40.360;2023-08-07T07:28:17;57093.69;;;-145.77;100.00
26487;BME280;14425;56.136;40.360;2023-08-07T07:30:43;57093.69;;;-145.77;100.00
26487;BME280;14425;56.136;40.360;2023-08-07T07:33:08;57093.69;;;-145.77;100.00
26487;BME280;14425;56.136;40.360;2023-08-07T07:35:38;57093.69;;;-145.77;100.00
26487;BME280;14425;56.136;40.360;2023-08-07T07:38:04;57093.69;;;-145.77;100.00
26487;BME280;14425;56.136;40.360;2023-08-07T07:40:30;57093.69;;;-145.77;100.00
26487;BME280;14425;56.136;40.360;2023-08-07T07:42:55;57093.69;;;-145.77;100.00
26487;BME280;14425;56.136;40.360;2023-08-07T07:45:21;57093.69;;;-145.77;100.00
26487;BME280;14425;56.136;40.360;2023-08-07T07:47:46;57093.69;;;-145.77;100.00
26487;BME280;14425;56.136;40.360;2023-08-07T07:50:12;57093.69;;;-145.77;100.00
26487;BME280;14425;56.136;40.360;2023-08-07T07:52:39;57093.69;;;-145.77;100.00
26487;BME280;14425;56.136;40.360;2023-08-07T07:55:05;57093.69;;;-145.77;100.00
26487;BME280;14425;56.136;40.360;2023-08-07T07:57:30;57093.69;;;-145.77;100.00
26487;BME280;14425;56.136;40.360;2023-08-07T07:59:56;57093.69;;;-145.77;100.00
26487;BME280;14425;56.136;40.360;2023-08-07T08:02:22;57093.69;;;-145.77;100.00
26487;BME280;14425;56.136;40.360;2023-08-07T08:04:51;57093.69;;;-145.77;100.00
26487;BME280;14425;56.136;40.360;2023-08-07T08:07:18;57093.69;;;-145.77;100.00
26487;BME280;14425;56.136;40.360;2023-08-07T08:09:44;57093.69;;;-145.77;100.00
26487;BME280;14425;56.136;40.360;2023-08-07T08:12:10;57093.69;;;-145.77;100.00
26487;BME280;14425;56.136;40.360;2023-08-07T08:14:35;57093.69;;;-145.77;100.00
26487;BME280;14425;56.136;40.360;2023-08-07T08:17:01;57093.69;;;-145.77;100.00
26487;BME280;14425;56.136;40.360;2023-08-07T08:19:26;57093.69;;;-145.77;100.00
26487;BME280;14425;56.136;40.360;2023-08-07T08:21:54;57093.69;;;-145.77;100.00
26487;BME280;14425;56.136;40.360;2023-08-07T08:24:20;57093.69;;;-145.77;100.00
26487;BME280;14425;56.136;40.360;2023-08-07T08:26:46;57093.69;;;-145.77;100.00
26487;BME280;14425;56.136;40.360;2023-08-07T08:29:14;57093.69;;;-145.77;100.00
26487;BME280;14425;56.136;40.360;2023-08-07T08:31:40;57093.69;;;-145.77;100.00
26487;BME280;14425;56.136;40.360;2023-08-07T08:34:05;57093.69;;;-145.77;100.00
26487;BME280;14425;56.136;40.360;2023-08-07T08:36:31;57093.69;;;-145.77;100.00
26487;BME280;14425;56.136;40.360;2023-08-07T08:38:57;57093.69;;;-145.77;100.00
26487;BME280;14425;56.136;40.360;2023-08-07T08:41:23;57093.69;;;-145.77;100.00
26487;BME280;14425;56.136;40.360;2023-08-07T08:43:51;57093.69;;;-145.77;100.00
26487;BME280;14425;56.136;40.360;2023-08-07T08:46:20;57093.69;;;-145.77;100.00
26487;BME280;14425;56.136;40.360;2023-08-07T08:48:51;57093.69;;;-145.77;100.00
26487;BME280;14425;56.136;40.360;2023-08-07T08:51:17;57093.69;;;-145.77;100.00
26487;BME280;14425;56.136;40.360;2023-08-07T08:53:45;57093.69;;;-145.77;100.00
26487;BME280;14425;56.136;40.360;2023-08-07T08:56:11;57093.69;;;-145.77;100.00
26487;BME280;14425;56.136;40.360;2023-08-07T08:58:37;57093.69;;;-145.77;100.00
26487;BME280;14425;56.136;40.360;2023-08-07T09:01:07;57093.69;;;-145.77;100.00
26487;BME280;14425;56.136;40.360;2023-08-07T09:03:34;57093.69;;;-145.77;100.00
26487;BME280;14425;56.136;40.360;2023-08-07T09:06:00;57093.69;;;-145.77;100.00
26487;BME280;14425;56.136;40.360;2023-08-07T09:08:27;57093.69;;;-145.77;100.00
26487;BME280;14425;56.136;40.360;2023-08-07T09:10:55;57093.69;;;-145.77;100.00
26487;BME280;14425;56.136;40.360;2023-08-07T09:13:23;57093.69;;;-145.77;100.00
26487;BME280;14425;56.136;40.360;2023-08-07T09:15:53;57093.69;;;-145.77;100.00
26487;BME280;14425;56.136;40.360;2023-08-07T09:18:19;57093.69;;;-145.77;100.00
26487;BME280;14425;56.136;40.360;2023-08-07T09:20:45;57093.69;;;-145.77;100.00
26487;BME280;14425;56.136;40.360;2023-08-07T09:23:11;57093.69;;;-145.77;100.00
26487;BME280;14425;56.136;40.360;2023-08-07T09:25:37;57093.69;;;-145.77;100.00
26487;BME280;14425;56.136;40.360;2023-08-07T09:28:06;57093.69;;;-145.77;100.00
26487;BME280;14425;56.136;40.360;2023-08-07T09:30:34;57093.69;;;-145.77;100.00
26487;BME280;14425;56.136;40.360;2023-08-07T09:33:01;57093.69;;;-145.77;100.00
26487;BME280;14425;56.136;40.360;2023-08-07T09:35:29;57093.69;;;-145.77;100.00
26487;BME280;14425;56.136;40.360;2023-08-07T09:37:56;57093.69;;;-145.77;100.00
26487;BME280;14425;56.136;40.360;2023-08-07T09:40:22;57093.69;;;-145.77;100.00
26487;BME280;14425;56.136;40.360;2023-08-07T09:42:50;57093.69;;;-145.77;100.00
26487;BME280;14425;56.136;40.360;2023-08-07T09:45:27;57093.69;;;-145.77;100.00
26487;BME280;14425;56.136;40.360;2023-08-07T09:48:02;57093.69;;;-145.77;100.00
26487;BME280;14425;56.136;40.360;2023-08-07T09:50:28;57093.69;;;-145.77;100.00
26487;BME280;14425;56.136;40.360;2023-08-07T09:52:57;57093.69;;;-145.77;100.00
26487;BME280;14425;56.136;40.360;2023-08-07T09:55:24;57093.69;;;-145.77;100.00
26487;BME280;14425;56.136;40.360;2023-08-07T09:57:50;57093.69;;;-145.77;100.00
26487;BME280;14425;56.136;40.360;2023-08-07T10:00:16;57093.69;;;-145.77;100.00
26487;BME280;14425;56.136;40.360;2023-08-07T10:02:46;57093.69;;;-145.77;100.00
26487;BME280;14425;56.136;40.360;2023-08-07T10:05:11;57093.69;;;-145.77;100.00
26487;BME280;14425;56.136;40.360;2023-08-07T10:07:38;57093.69;;;-145.77;100.00
26487;BME280;14425;56.136;40.360;2023-08-07T10:10:05;57093.69;;;-145.77;100.00
26487;BME280;14425;56.136;40.360;2023-08-07T10:12:32;57093.69;;;-145.77;100.00
26487;BME280;14425;56.136;40.360;2023-08-07T10:14:59;57093.69;;;-145.77;100.00
26487;BME280;14425;56.136;40.360;2023-08-07T10:17:25;57093.69;;;-145.77;100.00
26487;BME280;14425;56.136;40.360;2023-08-07T10:19:51;57093.69;;;-145.77;100.00
26487;BME280;14425;56.136;40.360;2023-08-07T10:22:19;57093.69;;;-145.77;100.00
26487;BME280;14425;56.136;40.360;2023-08-07T10:24:48;57093.69;;;-145.77;100.00
26487;BME280;14425;56.136;40.360;2023-08-07T10:27:18;57093.69;;;-145.77;100.00
26487;BME280;14425;56.136;40.360;2023-08-07T10:29:47;57093.69;;;-145.77;100.00
26487;BME280;14425;56.136;40.360;2023-08-07T10:32:17;57093.69;;;-145.77;100.00
26487;BME280;14425;56.136;40.360;2023-08-07T10:34:49;57093.69;;;-145.77;100.00
26487;BME280;14425;56.136;40.360;2023-08-07T10:40:03;57093.69;;;-145.77;100.00
26487;BME280;14425;56.136;40.360;2023-08-07T10:45:17;57093.69;;;-145.77;100.00
26487;BME280;14425;56.136;40.360;2023-08-07T10:47:42;57093.69;;;-145.77;100.00
26487;BME280;14425;56.136;40.360;2023-08-07T10:50:09;57093.69;;;-145.77;100.00
26487;BME280;14425;56.136;40.360;2023-08-07T10:52:38;57093.69;;;-145.77;100.00
26487;BME280;14425;56.136;40.360;2023-08-07T10:55:13;57093.69;;;-145.77;100.00
26487;BME280;14425;56.136;40.360;2023-08-07T10:57:40;57093.69;;;-145.77;100.00
26487;BME280;14425;56.136;40.360;2023-08-07T11:00:06;57093.69;;;-145.77;100.00
26487;BME280;14425;56.136;40.360;2023-08-07T11:02:37;57093.69;;;-145.77;100.00
26487;BME280;14425;56.136;40.360;2023-08-07T11:05:05;57093.69;;;-145.77;100.00
26487;BME280;14425;56.136;40.360;2023-08-07T11:07:32;99437.78;;;32.96;34.23
26487;BME280;14425;56.136;40.360;2023-08-07T11:09:58;99444.91;;;33.26;33.96
26487;BME280;14425;56.136;40.360;2023-08-07T11:12:28;99444.38;;;34.18;33.96
26487;BME280;14425;56.136;40.360;2023-08-07T11:14:56;99438.75;;;33.81;36.02
26487;BME280;14425;56.136;40.360;2023-08-07T11:17:26;99438.94;;;33.93;33.85
26487;BME280;14425;56.136;40.360;2023-08-07T11:19:53;99435.56;;;32.88;35.27
26487;BME280;14425;56.136;40.360;2023-08-07T11:22:19;99441.25;;;32.82;36.09
26487;BME280;14425;56.136;40.360;2023-08-07T11:24:46;99425.09;;;34.13;35.34
26487;BME280;14425;56.136;40.360;2023-08-07T11:27:11;99438.94;;;33.78;35.21
26487;BME280;14425;56.136;40.360;2023-08-07T11:29:37;99431.88;;;33.63;34.56
26487;BME280;14425;56.136;40.360;2023-08-07T11:32:03;99436.00;;;33.11;35.03
26487;BME280;14425;56.136;40.360;2023-08-07T11:34:29;99430.06;;;33.63;34.78
26487;BME280;14425;56.136;40.360;2023-08-07T11:36:54;99442.78;;;33.45;34.63
26487;BME280;14425;56.136;40.360;2023-08-07T11:39:20;99425.66;;;33.05;34.50
26487;BME280;14425;56.136;40.360;2023-08-07T11:41:46;99424.84;;;32.74;35.26
26487;BME280;14425;56.136;40.360;2023-08-07T11:44:13;99421.94;;;32.93;35.22
26487;BME280;14425;56.136;40.360;2023-08-07T11:46:38;99424.66;;;33.22;35.05
26487;BME280;14425;56.136;40.360;2023-08-07T11:49:04;99417.50;;;33.51;33.90
26487;BME280;14425;56.136;40.360;2023-08-07T11:51:30;99417.28;;;33.11;33.69
26487;BME280;14425;56.136;40.360;2023-08-07T11:53:56;99406.88;;;33.64;33.82
26487;BME280;14425;56.136;40.360;2023-08-07T11:56:25;99415.69;;;33.23;34.28
26487;BME280;14425;56.136;40.360;2023-08-07T11:58:52;99407.19;;;33.16;34.45
26487;BME280;14425;56.136;40.360;2023-08-07T12:01:21;99408.28;;;33.84;35.06
26487;BME280;14425;56.136;40.360;2023-08-07T12:06:23;99399.66;;;33.37;35.29
26487;BME280;14425;56.136;40.360;2023-08-07T12:08:50;99391.91;;;32.89;36.33
26487;BME280;14425;56.136;40.360;2023-08-07T12:11:18;99384.16;;;33.57;35.95
26487;BME280;14425;56.136;40.360;2023-08-07T12:13:47;99396.84;;;33.67;35.54
26487;BME280;14425;56.136;40.360;2023-08-07T12:16:14;99380.25;;;33.48;34.84
26487;BME280;14425;56.136;40.360;2023-08-07T12:18:47;99383.59;;;32.80;35.67
26487;BME280;14425;56.136;40.360;2023-08-07T12:21:20;99376.63;;;32.91;35.98
26487;BME280;14425;56.136;40.360;2023-08-07T12:23:46;99374.03;;;32.75;34.99
26487;BME280;14425;56.136;40.360;2023-08-07T12:26:14;99370.94;;;32.53;36.06
26487;BME280;14425;56.136;40.360;2023-08-07T12:28:39;99374.19;;;32.58;37.05
26487;BME280;14425;56.136;40.360;2023-08-07T12:31:05;99390.09;;;33.04;35.35
26487;BME280;14425;56.136;40.360;2023-08-07T12:33:32;99380.16;;;32.77;36.00
26487;BME280;14425;56.136;40.360;2023-08-07T12:35:58;99373.06;;;32.62;35.74
26487;BME280;14425;56.136;40.360;2023-08-07T12:38:24;99362.63;;;33.31;35.71